Time;durP1;ratioP1;P1;durP2;ratioP2;P2;SDS_P1;SDS_P2;PMS_P1;PMS_P2;Temp;Humidity;BMP_temperature;BMP_pressure;BME280_temperature;BME280_humidity;BME280_pressure;Samples;Min_cycle;Max_cycle;Signal;HPM_P1;HPM_P2
2023/02/13 00:00:22;;;;;;;11.93;3.57;;;2.30;99.90;;;;;;4834115;29;20060;-89
2023/02/13 00:02:48;;;;;;;11.20;3.67;;;2.30;99.90;;;;;;4833777;29;20038;-89
2023/02/13 00:05:14;;;;;;;13.23;4.27;;;2.30;99.90;;;;;;4832348;29;20030;-90
2023/02/13 00:07:40;;;;;;;10.53;4.27;;;2.20;99.90;;;;;;4831628;29;20035;-89
2023/02/13 00:10:07;;;;;;;11.23;3.87;;;1.60;99.90;;;;;;4830915;29;20040;-89
2023/02/13 00:12:33;;;;;;;13.03;4.50;;;2.30;99.90;;;;;;4828780;29;20039;-90
2023/02/13 00:14:59;;;;;;;11.27;3.53;;;3.40;99.90;;;;;;4831481;29;20160;-89
2023/02/13 00:17:25;;;;;;;14.47;4.70;;;3.40;99.90;;;;;;4831701;29;20522;-90
2023/02/13 00:19:51;;;;;;;12.07;4.57;;;2.30;99.90;;;;;;4831371;29;20094;-89
2023/02/13 00:22:17;;;;;;;14.73;4.57;;;3.70;99.90;;;;;;4826833;29;20100;-89
2023/02/13 00:24:43;;;;;;;12.03;4.17;;;3.40;99.90;;;;;;4827969;29;20565;-89
2023/02/13 00:27:09;;;;;;;13.20;4.70;;;3.90;99.90;;;;;;4826992;29;20034;-88
2023/02/13 00:29:34;;;;;;;14.73;4.90;;;3.20;99.90;;;;;;4824940;29;20042;-88
2023/02/13 00:32:01;;;;;;;13.10;4.37;;;4.10;99.90;;;;;;4826696;29;20030;-89
2023/02/13 00:34:27;;;;;;;19.03;5.17;;;1.90;99.90;;;;;;4833161;29;20030;-90
2023/02/13 00:36:53;;;;;;;15.57;4.10;;;3.30;99.90;;;;;;4830577;29;20042;-89
2023/02/13 00:39:18;;;;;;;16.87;4.10;;;1.60;99.90;;;;;;4830562;29;20507;-89
2023/02/13 00:41:44;;;;;;;14.50;4.00;;;3.40;99.90;;;;;;4825684;29;20614;-89
2023/02/13 00:44:10;;;;;;;13.40;4.37;;;3.10;99.90;;;;;;4841236;29;20036;-88
2023/02/13 00:46:37;;;;;;;14.57;3.87;;;2.00;99.90;;;;;;4831085;29;20407;-89
2023/02/13 00:49:06;;;;;;;13.37;3.73;;;3.50;99.90;;;;;;4831163;29;20511;-89
2023/02/13 00:51:32;;;;;;;17.67;4.43;;;1.90;99.90;;;;;;4827430;29;20027;-88
2023/02/13 00:53:57;;;;;;;14.53;4.73;;;2.00;99.90;;;;;;4828583;29;20091;-89
2023/02/13 00:56:23;;;;;;;13.53;3.83;;;1.80;99.90;;;;;;4826111;29;20164;-89
2023/02/13 00:58:49;;;;;;;13.37;3.93;;;1.90;99.90;;;;;;4839209;29;20022;-88
2023/02/13 01:01:14;;;;;;;14.47;4.67;;;1.80;99.90;;;;;;4831871;29;20033;-89
2023/02/13 01:03:40;;;;;;;12.10;3.70;;;2.80;99.90;;;;;;4829713;29;20113;-89
2023/02/13 01:06:07;;;;;;;13.90;4.40;;;3.00;99.90;;;;;;4843243;29;20046;-89
2023/02/13 01:08:36;;;;;;;19.07;4.33;;;1.80;99.90;;;;;;4823968;29;20105;-89
2023/02/13 01:11:01;;;;;;;11.33;4.37;;;1.80;99.90;;;;;;4826412;29;20031;-89
2023/02/13 01:13:28;;;;;;;13.80;3.23;;;2.00;99.90;;;;;;4828822;29;20090;-89
2023/02/13 01:15:54;;;;;;;13.73;4.10;;;2.60;99.90;;;;;;4828836;29;20023;-89
2023/02/13 01:18:20;;;;;;;11.27;3.30;;;1.70;99.90;;;;;;4830069;29;20041;-89
2023/02/13 01:20:56;;;;;;;10.33;3.27;;;2.20;99.90;;;;;;4829333;29;20685;-89
2023/02/13 01:23:24;;;;;;;16.43;4.70;;;2.70;99.90;;;;;;4829069;29;20042;-90
2023/02/13 01:25:50;;;;;;;14.63;3.50;;;2.00;99.90;;;;;;4830779;29;20030;-89
2023/02/13 01:28:16;;;;;;;13.60;3.67;;;1.90;99.90;;;;;;4829165;29;20045;-89
2023/02/13 01:30:42;;;;;;;12.50;3.77;;;1.70;99.90;;;;;;4828038;29;20054;-89
2023/02/13 01:33:12;;;;;;;20.27;5.27;;;2.40;99.90;;;;;;4830483;29;20480;-90
2023/02/13 01:35:39;;;;;;;14.13;4.33;;;1.60;99.90;;;;;;4829854;29;20055;-89
2023/02/13 01:38:04;;;;;;;14.97;4.30;;;2.40;99.90;;;;;;4827793;29;20041;-90
2023/02/13 01:40:30;;;;;;;13.43;3.70;;;1.60;99.90;;;;;;4824925;29;20026;-90
2023/02/13 01:42:56;;;;;;;17.47;4.33;;;1.60;99.90;;;;;;4823243;29;20116;-89
2023/02/13 01:45:30;;;;;;;13.90;3.83;;;1.90;99.90;;;;;;4839903;29;20117;-89
2023/02/13 01:48:06;;;;;;;15.37;4.23;;;1.50;99.90;;;;;;4838048;29;20026;-90
2023/02/13 01:51:04;;;;;;;15.17;3.47;;;1.50;99.90;;;;;;4843372;29;20046;-89
2023/02/13 01:53:52;;;;;;;11.30;4.07;;;1.40;99.90;;;;;;4848624;29;20063;-89
2023/02/13 01:56:40;;;;;;;15.87;4.60;;;1.50;99.90;;;;;;4828594;29;20461;-89
2023/02/13 01:59:12;;;;;;;13.17;3.77;;;1.50;99.90;;;;;;4831211;29;20030;-89
2023/02/13 02:01:38;;;;;;;11.38;3.65;;;1.90;99.90;;;;;;4841780;29;20094;-89
2023/02/13 02:04:21;;;;;;;15.23;4.00;;;1.70;99.90;;;;;;4829789;29;20030;-89
2023/02/13 02:06:51;;;;;;;14.10;5.15;;;2.20;99.90;;;;;;4829738;29;20403;-89
2023/02/13 02:09:22;;;;;;;15.70;4.63;;;1.40;99.90;;;;;;4842222;29;21070;-90
2023/02/13 02:12:00;;;;;;;11.73;4.00;;;2.00;99.90;;;;;;4834768;29;20023;-89
2023/02/13 02:14:26;;;;;;;18.80;4.10;;;1.40;99.90;;;;;;4837584;29;20021;-89
2023/02/13 02:16:52;;;;;;;12.83;4.53;;;1.40;99.90;;;;;;4832546;29;20030;-90
2023/02/13 02:19:55;;;;;;;12.17;4.33;;;2.00;99.90;;;;;;4829219;29;20026;-89
2023/02/13 02:22:35;;;;;;;11.85;3.55;;;1.30;99.90;;;;;;4831388;29;20036;-89
2023/02/13 02:25:16;;;;;;;11.60;3.83;;;1.40;99.90;;;;;;4831572;29;20035;-89
2023/02/13 02:27:55;;;;;;;17.17;4.13;;;1.30;99.90;;;;;;4826775;29;20023;-90
2023/02/13 02:31:08;;;;;;;15.50;4.13;;;1.30;99.90;;;;;;4831683;29;20030;-90
2023/02/13 02:33:48;;;;;;;12.82;4.25;;;1.30;99.90;;;;;;4826113;29;20038;-90
2023/02/13 02:36:19;;;;;;;13.00;3.80;;;1.30;99.90;;;;;;4845051;29;20112;-89
2023/02/13 02:39:09;;;;;;;17.67;3.90;;;1.30;99.90;;;;;;4830300;29;20114;-89
2023/02/13 02:41:58;;;;;;;12.30;4.40;;;0.90;99.90;;;;;;4831873;29;20050;-90
2023/02/13 02:44:32;;;;;;;20.50;4.97;;;1.30;99.90;;;;;;4833033;29;20046;-90
2023/02/13 02:50:11;;;;;;;13.70;3.73;;;1.30;99.90;;;;;;4833570;29;20033;-89
2023/02/13 02:53:07;;;;;;;13.07;4.43;;;1.30;99.90;;;;;;4847458;29;20124;-89
2023/02/13 02:56:00;;;;;;;11.40;4.37;;;1.30;99.90;;;;;;4834772;29;20389;-89
2023/02/13 03:07:13;;;;;;;14.37;4.43;;;1.50;99.90;;;;;;4833852;29;20526;-90
2023/02/13 03:15:20;;;;;;;;;;;1.20;99.90;;;;;;4834229;29;20025;-89
2023/02/13 03:23:39;;;;;;;15.23;4.83;;;1.10;99.90;;;;;;4833209;29;20063;-89
2023/02/13 03:26:49;;;;;;;13.90;4.53;;;1.20;99.90;;;;;;4837324;29;20034;-89
2023/02/13 03:33:04;;;;;;;11.52;3.28;;;1.20;99.90;;;;;;4833333;29;20117;-89
2023/02/13 03:39:29;;;;;;;12.57;4.47;;;1.10;99.90;;;;;;4833219;29;20128;-89
2023/02/13 03:41:59;;;;;;;13.10;4.40;;;1.10;99.90;;;;;;4830305;29;20061;-90
2023/02/13 03:44:30;;;;;;;14.80;4.43;;;1.00;99.90;;;;;;4834716;29;20041;-90
2023/02/13 03:46:59;;;;;;;15.13;4.97;;;1.10;99.90;;;;;;4829538;29;20034;-90
2023/02/13 03:50:06;;;;;;;12.50;4.47;;;1.20;99.90;;;;;;4833020;29;20037;-90
2023/02/13 03:52:42;;;;;;;18.47;4.63;;;1.30;99.90;;;;;;4830784;29;20034;-89
2023/02/13 04:00:56;;;;;;;16.47;5.33;;;0.90;99.90;;;;;;4839914;29;20061;-89
2023/02/13 04:03:25;;;;;;;14.77;4.73;;;0.60;99.90;;;;;;4833493;29;20042;-89
2023/02/13 04:05:57;;;;;;;15.20;4.43;;;0.80;99.90;;;;;;4832008;29;20037;-89
2023/02/13 04:08:22;;;;;;;15.48;4.95;;;0.70;99.90;;;;;;4831974;29;20062;-89
2023/02/13 04:10:59;;;;;;;17.03;4.83;;;2.30;99.90;;;;;;4830338;29;20062;-89
2023/02/13 04:13:31;;;;;;;10.60;3.93;;;0.80;99.90;;;;;;4828051;29;20025;-89
2023/02/13 04:16:08;;;;;;;15.50;4.13;;;0.70;99.90;;;;;;4822623;29;20026;-88
2023/02/13 04:18:35;;;;;;;16.70;4.13;;;0.80;99.90;;;;;;4825413;29;20023;-89
2023/02/13 04:21:05;;;;;;;17.80;4.90;;;2.00;99.90;;;;;;4846224;29;20026;-89
2023/02/13 04:23:31;;;;;;;15.57;5.10;;;0.40;99.90;;;;;;4841289;29;20043;-89
2023/02/13 04:44:09;;;;;;;13.82;4.70;;;0.30;99.90;;;;;;4828877;29;20065;-88
2023/02/13 04:47:11;;;;;;;;;;;;;;;;;;;;;
2023/02/13 04:53:24;;;;;;;11.97;4.27;;;0.80;99.90;;;;;;4834015;29;20089;-86
2023/02/13 05:00:18;;;;;;;;;;;;;;;;;;;;;
2023/02/13 05:03:44;;;;;;;14.27;4.87;;;2.20;99.90;;;;;;4831817;29;20022;-88
2023/02/13 05:10:04;;;;;;;14.30;4.32;;;1.40;99.90;;;;;;4792833;29;20516;-88
2023/02/13 05:13:29;;;;;;;14.17;4.20;;;0.60;99.90;;;;;;4782579;30;20475;-88
2023/02/13 05:23:25;;;;;;;15.97;4.40;;;0.50;99.90;;;;;;4838167;29;20377;-88
2023/02/13 05:33:43;;;;;;;14.85;5.80;;;0.20;99.90;;;;;;4851487;29;20042;-89
2023/02/13 05:37:00;;;;;;;13.77;5.03;;;1.40;99.90;;;;;;4803318;29;20037;-88
2023/02/13 05:40:27;;;;;;;16.93;6.00;;;0.40;99.90;;;;;;4812317;29;20042;-89
2023/02/13 05:43:57;;;;;;;;;;;;;;;;;;;;;
2023/02/13 05:47:46;;;;;;;;;;;;;;;;;;;;;
2023/02/13 05:56:50;;;;;;;21.00;4.23;;;1.60;99.90;;;;;;4905726;23;20137;-88
2023/02/13 06:00:12;;;;;;;;;;;;;;;;;;;;;
2023/02/13 06:03:24;;;;;;;9.32;2.58;;;0.70;99.90;;;;;;4836746;29;20049;-89
2023/02/13 06:06:50;;;;;;;12.63;4.37;;;0.60;99.90;;;;;;4842911;29;20404;-88
2023/02/13 06:13:17;;;;;;;11.18;3.97;;;2.10;99.90;;;;;;4823442;29;20038;-89
2023/02/13 06:16:16;;;;;;;12.23;4.73;;;-0.30;99.90;;;;;;4821786;29;20025;-89
2023/02/13 06:33:13;;;;;;;;;;;;;;;;;;;;;
2023/02/13 06:36:08;;;;;;;16.27;4.03;;;0.50;99.90;;;;;;4844195;29;20026;-87
2023/02/13 06:38:51;;;;;;;14.17;4.43;;;0.50;99.90;;;;;;4828418;29;20619;-86
2023/02/13 06:41:37;;;;;;;12.27;3.80;;;0.80;99.90;;;;;;4821902;29;20307;-85
2023/02/13 06:44:25;;;;;;;14.00;3.93;;;1.80;99.90;;;;;;4842628;29;20148;-88
2023/02/13 06:46:58;;;;;;;12.63;4.07;;;0.60;99.90;;;;;;4836932;29;20034;-88
2023/02/13 06:49:39;;;;;;;13.77;4.07;;;0.20;99.90;;;;;;4818292;29;20050;-88
2023/02/13 06:52:35;;;;;;;11.30;4.30;;;0.70;99.90;;;;;;4818062;29;20306;-88
2023/02/13 06:55:15;;;;;;;;;;;;;;;;;;;;;
2023/02/13 06:58:52;;;;;;;;;;;;;;;;;;;;;
2023/02/13 07:04:52;;;;;;;15.17;4.20;;;0.70;99.90;;;;;;4828136;29;20039;-87
2023/02/13 07:07:48;;;;;;;12.67;4.03;;;-0.20;99.90;;;;;;4820823;29;20515;-88
2023/02/13 07:11:02;;;;;;;11.77;4.30;;;1.40;99.90;;;;;;4821560;29;20034;-88
2023/02/13 07:17:10;;;;;;;;;;;;;;;;;;;;;
2023/02/13 07:19:56;;;;;;;12.37;4.27;;;2.00;99.90;;;;;;4820462;29;20048;-87
2023/02/13 07:23:13;;;;;;;13.70;5.13;;;0.90;99.90;;;;;;4821369;29;20049;-86
2023/02/13 07:29:17;;;;;;;16.93;5.10;;;1.00;99.90;;;;;;4755958;30;20044;-87
2023/02/13 07:31:46;;;;;;;12.37;4.17;;;1.20;99.90;;;;;;4852260;29;20034;-88
2023/02/13 07:37:31;;;;;;;9.77;3.87;;;2.30;99.90;;;;;;4812198;29;20049;-87
2023/02/13 07:40:00;;;;;;;16.53;4.80;;;1.30;99.90;;;;;;4822576;29;20069;-88
2023/02/13 07:42:35;;;;;;;13.40;4.67;;;1.80;99.90;;;;;;4821468;29;20018;-88
2023/02/13 07:45:26;;;;;;;10.50;4.37;;;1.40;99.90;;;;;;4821061;29;20022;-88
2023/02/13 07:47:58;;;;;;;13.87;4.00;;;1.30;99.90;;;;;;4822760;29;20030;-88
2023/02/13 07:50:43;;;;;;;18.75;5.75;;;1.60;99.90;;;;;;4823957;29;20018;-89
2023/02/13 07:53:09;;;;;;;10.10;5.17;;;1.20;99.90;;;;;;4821892;29;20030;-89
2023/02/13 07:56:10;;;;;;;16.83;6.30;;;1.40;99.90;;;;;;4821984;29;20846;-88
2023/02/13 07:59:53;;;;;;;;;;;;;;;;;;;;;
2023/02/13 08:36:58;;;;;;;16.20;4.30;;;2.70;99.90;;;;;;4756697;30;20035;-90
2023/02/13 08:39:58;;;;;;;20.83;5.60;;;2.40;99.90;;;;;;4784112;30;20038;-87
2023/02/13 08:42:51;;;;;;;;;;;;;;;;;;;;;
2023/02/13 08:49:17;;;;;;;14.80;4.20;;;3.00;99.90;;;;;;4829697;29;20770;-89
2023/02/13 08:52:32;;;;;;;11.57;4.43;;;2.60;99.90;;;;;;4857620;29;20034;-88
2023/02/13 08:55:31;;;;;;;14.63;4.27;;;2.40;99.90;;;;;;4835349;23;20057;-89
2023/02/13 08:59:00;;;;;;;;;;;;;;;;;;;;;
2023/02/13 09:02:02;;;;;;;;;;;;;;;;;;;;;
2023/02/13 09:05:22;;;;;;;12.97;4.30;;;2.90;99.90;;;;;;4833881;29;20042;-89
2023/02/13 09:15:46;;;;;;;;;;;;;;;;;;;;;
2023/02/13 09:22:28;;;;;;;10.53;4.17;;;3.60;99.90;;;;;;4781320;29;20122;-88
2023/02/13 09:25:53;;;;;;;12.38;4.25;;;3.50;99.90;;;;;;4743924;30;20044;-89
2023/02/13 09:29:29;;;;;;;9.43;3.60;;;4.70;99.90;;;;;;4790913;29;20081;-89
2023/02/13 09:32:27;;;;;;;;;;;;;;;;;;;;;
2023/02/13 09:46:54;;;;;;;9.73;3.35;;;5.20;99.90;;;;;;4865063;24;20073;-89
2023/02/13 09:49:56;;;;;;;12.03;3.87;;;4.00;99.90;;;;;;4837724;29;20050;-89
2023/02/13 09:53:16;;;;;;;;;;;;;;;;;;;;;
2023/02/13 09:56:37;;;;;;;;;;;;;;;;;;;;;
2023/02/13 09:59:55;;;;;;;;;;;;;;;;;;;;;
2023/02/13 10:03:13;;;;;;;;;;;;;;;;;;;;;
2023/02/13 10:26:41;;;;;;;6.13;2.83;;;5.00;99.90;;;;;;4001374;23;20065;-87
2023/02/13 10:32:01;;;;;;;7.73;2.73;;;5.20;99.90;;;;;;4855469;29;20033;-88
2023/02/13 10:34:33;;;;;;;9.93;3.80;;;5.30;99.90;;;;;;4852815;29;20019;-89
2023/02/13 10:36:59;;;;;;;7.23;2.90;;;5.20;99.90;;;;;;4852154;29;20544;-89
2023/02/13 10:39:28;;;;;;;9.40;4.03;;;5.20;99.90;;;;;;4852108;29;20033;-88
2023/02/13 10:42:30;;;;;;;11.03;3.53;;;5.30;99.90;;;;;;4856209;29;20036;-88
2023/02/13 10:45:13;;;;;;;5.97;2.53;;;5.40;99.90;;;;;;4854361;29;20061;-88
2023/02/13 10:48:06;;;;;;;7.07;2.57;;;5.30;99.90;;;;;;4854294;29;20026;-87
2023/02/13 10:51:01;;;;;;;7.75;2.38;;;5.90;99.90;;;;;;4839908;29;20062;-90
2023/02/13 10:53:39;;;;;;;7.50;2.77;;;5.50;99.90;;;;;;4855987;29;20030;-90
2023/02/13 10:56:22;;;;;;;8.80;2.93;;;5.60;99.90;;;;;;4852868;29;20075;-88
2023/02/13 10:59:12;;;;;;;7.07;2.57;;;5.80;99.90;;;;;;4857331;29;20044;-89
2023/02/13 11:02:02;;;;;;;8.07;2.63;;;5.60;99.90;;;;;;4858284;29;20030;-89
2023/02/13 11:04:31;;;;;;;7.47;2.60;;;5.60;99.90;;;;;;4846065;29;20115;-90
2023/02/13 11:07:04;;;;;;;8.43;2.70;;;5.50;99.90;;;;;;4858712;29;20472;-89
2023/02/13 11:09:39;;;;;;;7.90;2.73;;;5.20;99.90;;;;;;4859922;29;20071;-87
2023/02/13 11:12:34;;;;;;;6.50;2.20;;;5.80;99.90;;;;;;4859200;29;20025;-90
2023/02/13 11:15:06;;;;;;;5.00;2.00;;;5.80;99.90;;;;;;4855252;29;20038;-91
2023/02/13 11:17:42;;;;;;;5.83;1.87;;;5.80;99.90;;;;;;4859694;29;20026;-88
2023/02/13 11:20:35;;;;;;;8.70;3.13;;;5.80;99.90;;;;;;4856998;29;20018;-91
2023/02/13 11:23:30;;;;;;;6.80;2.27;;;6.00;99.90;;;;;;4857334;29;20089;-90
2023/02/13 11:26:09;;;;;;;7.83;2.07;;;6.00;99.90;;;;;;4847866;29;20042;-86
2023/02/13 11:28:38;;;;;;;6.93;2.80;;;7.00;99.90;;;;;;4857106;29;20042;-88
2023/02/13 11:31:25;;;;;;;7.60;2.23;;;7.20;99.90;;;;;;4859774;29;20022;-90
2023/02/13 11:33:51;;;;;;;6.67;2.27;;;6.20;99.90;;;;;;4850303;29;20033;-89
2023/02/13 11:36:32;;;;;;;6.17;2.73;;;6.30;99.90;;;;;;4855306;29;20038;-90
2023/02/13 11:39:19;;;;;;;6.83;2.40;;;6.30;99.90;;;;;;4852091;29;20086;-89
2023/02/13 11:41:54;;;;;;;7.93;2.50;;;6.40;99.90;;;;;;4844323;29;20018;-91
2023/02/13 11:44:30;;;;;;;5.20;2.10;;;6.40;99.90;;;;;;4849981;29;20030;-91
2023/02/13 11:46:59;;;;;;;6.80;2.40;;;6.40;99.90;;;;;;4852045;29;20034;-91
2023/02/13 11:49:33;;;;;;;6.10;2.67;;;6.40;99.90;;;;;;4855803;29;20070;-90
2023/02/13 11:52:02;;;;;;;7.10;2.40;;;6.50;99.90;;;;;;4848176;29;20026;-89
2023/02/13 11:55:16;;;;;;;6.57;2.20;;;6.60;99.90;;;;;;4859325;29;20030;-89
2023/02/13 11:58:01;;;;;;;6.00;2.27;;;7.30;99.90;;;;;;4841549;29;20492;-90
2023/02/13 12:00:41;;;;;;;4.93;1.93;;;6.60;99.90;;;;;;4856299;29;20055;-89
2023/02/13 12:03:19;;;;;;;6.23;2.40;;;6.60;99.90;;;;;;4856955;29;20252;-90
2023/02/13 12:05:59;;;;;;;7.53;2.43;;;6.70;99.90;;;;;;4862248;29;20002;-90
2023/02/13 12:08:30;;;;;;;5.13;1.97;;;6.50;99.90;;;;;;4855784;29;20034;-90
2023/02/13 12:10:58;;;;;;;7.03;2.90;;;6.80;99.90;;;;;;4862635;29;20026;-89
2023/02/13 12:13:35;;;;;;;7.90;2.80;;;6.40;99.90;;;;;;4858896;29;20042;-91
2023/02/13 12:16:41;;;;;;;8.53;3.73;;;6.90;99.90;;;;;;4863785;29;20042;-91
2023/02/13 12:19:33;;;;;;;6.73;2.70;;;6.90;99.90;;;;;;4858771;29;20045;-91
2023/02/13 12:22:39;;;;;;;7.72;3.33;;;6.90;99.90;;;;;;4853907;29;20057;-92
2023/02/13 12:25:11;;;;;;;8.60;3.30;;;8.40;99.90;;;;;;4859293;29;20660;-90
2023/02/13 12:28:14;;;;;;;8.43;3.65;;;7.00;99.90;;;;;;4859907;29;20120;-89
2023/02/13 12:31:23;;;;;;;8.25;3.25;;;7.00;99.90;;;;;;4866325;29;20017;-89
2023/02/13 12:34:32;;;;;;;8.80;2.97;;;6.90;99.90;;;;;;4873218;29;20029;-90
2023/02/13 12:37:51;;;;;;;8.90;3.30;;;7.20;99.90;;;;;;4860113;29;20114;-89
2023/02/13 12:40:41;;;;;;;9.73;3.40;;;7.20;99.90;;;;;;4849375;29;20026;-89
2023/02/13 12:43:44;;;;;;;8.88;3.17;;;7.30;99.90;;;;;;4854014;29;20045;-89
2023/02/13 12:46:29;;;;;;;9.88;3.30;;;8.50;99.90;;;;;;4855219;29;20064;-90
2023/02/13 12:49:19;;;;;;;8.45;3.22;;;7.60;99.90;;;;;;4856946;29;20045;-90
2023/02/13 12:51:57;;;;;;;8.75;3.15;;;7.80;99.90;;;;;;4857333;29;20042;-91
2023/02/13 12:55:19;;;;;;;;;;;;;;;;;;;;;
2023/02/13 12:58:23;;;;;;;7.45;3.05;;;7.50;99.90;;;;;;4858399;29;20053;-91
2023/02/13 13:01:16;;;;;;;10.50;3.20;;;8.70;99.90;;;;;;4855992;29;20032;-91
2023/02/13 13:04:00;;;;;;;7.78;3.17;;;8.50;99.90;;;;;;4857602;29;20045;-91
2023/02/13 13:07:05;;;;;;;8.20;3.03;;;9.90;99.90;;;;;;4860521;29;20038;-90
2023/02/13 13:10:14;;;;;;;5.68;2.83;;;8.50;99.90;;;;;;4861063;29;20021;-91
2023/02/13 13:13:09;;;;;;;8.35;3.20;;;8.30;99.90;;;;;;4862495;29;20014;-89
2023/02/13 13:16:13;;;;;;;8.45;3.08;;;8.60;99.90;;;;;;4855571;29;20026;-89
2023/02/13 13:19:19;;;;;;;7.90;3.15;;;8.40;99.90;;;;;;4853881;29;20037;-90
2023/02/13 13:22:22;;;;;;;7.00;2.90;;;8.60;99.90;;;;;;4853359;29;20034;-91
2023/02/13 13:25:06;;;;;;;7.85;3.13;;;8.50;99.90;;;;;;4861901;29;20051;-90
2023/02/13 13:27:43;;;;;;;10.68;3.10;;;9.20;99.90;;;;;;4861701;29;20038;-91
2023/02/13 13:30:52;;;;;;;8.90;3.63;;;8.90;99.90;;;;;;4862081;29;20034;-91
2023/02/13 13:34:23;;;;;;;6.60;2.50;;;9.20;99.90;;;;;;4861995;29;20030;-90
2023/02/13 13:37:26;;;;;;;6.20;2.60;;;;;;;;;;4858944;29;20061;-89
2023/02/13 13:40:51;;;;;;;7.30;3.28;;;9.00;99.90;;;;;;4855427;29;20027;-91
2023/02/13 13:46:18;;;;;;;10.27;2.70;;;9.20;99.90;;;;;;5390377;23;20030;-91
2023/02/13 13:49:10;;;;;;;7.63;3.53;;;11.30;99.90;;;;;;4874729;29;20022;-89
2023/02/13 13:51:42;;;;;;;9.65;3.45;;;9.10;99.90;;;;;;4870918;29;20033;-89
2023/02/13 13:54:27;;;;;;;8.75;3.45;;;10.90;99.90;;;;;;4872209;29;20076;-90
2023/02/13 13:56:53;;;;;;;7.90;3.70;;;7.80;99.90;;;;;;4859925;29;20025;-89
2023/02/13 14:02:53;;;;;;;6.13;2.72;;;9.70;99.90;;;;;;4857145;29;20042;-91
2023/02/13 14:09:08;;;;;;;8.05;3.45;;;10.70;99.90;;;;;;4806788;29;20034;-88
2023/02/13 14:11:45;;;;;;;6.53;3.03;;;9.90;99.90;;;;;;4789083;29;20081;-90
2023/02/13 14:14:26;;;;;;;7.88;3.20;;;10.00;99.90;;;;;;4830149;29;20030;-88
2023/02/13 14:17:00;;;;;;;8.38;2.80;;;11.60;99.90;;;;;;4861720;29;20030;-90
2023/02/13 14:19:41;;;;;;;7.22;3.17;;;11.00;99.90;;;;;;4862147;29;20010;-89
2023/02/13 14:22:26;;;;;;;7.57;2.67;;;9.70;99.90;;;;;;4880106;29;20094;-89
2023/02/13 14:25:04;;;;;;;7.43;2.83;;;11.00;99.90;;;;;;4859554;29;20106;-89
2023/02/13 14:27:41;;;;;;;6.20;2.85;;;10.20;99.90;;;;;;4859971;29;20094;-90
2023/02/13 14:30:31;;;;;;;7.18;2.92;;;10.20;99.90;;;;;;4861326;29;20089;-89
2023/02/13 14:33:00;;;;;;;6.55;2.78;;;;;;;;;;4857770;29;20029;-88
2023/02/13 14:35:30;;;;;;;5.97;2.85;;;;;;;;;;4857148;29;20033;-90
2023/02/13 14:38:01;;;;;;;6.80;2.60;;;10.70;99.90;;;;;;4861114;29;20097;-90
2023/02/13 14:40:47;;;;;;;7.60;3.40;;;11.10;99.90;;;;;;4856478;29;20097;-89
2023/02/13 14:43:27;;;;;;;7.13;2.83;;;11.30;99.90;;;;;;4853728;29;20030;-89
2023/02/13 14:46:22;;;;;;;6.93;2.75;;;12.00;99.90;;;;;;4853157;29;20041;-89
2023/02/13 14:48:58;;;;;;;8.32;3.33;;;12.00;99.90;;;;;;4857515;29;20057;-90
2023/02/13 14:51:50;;;;;;;6.97;3.10;;;12.40;99.90;;;;;;4856451;29;20485;-90
2023/02/13 14:54:28;;;;;;;6.10;2.90;;;12.60;99.90;;;;;;4855652;29;20033;-89
2023/02/13 14:57:20;;;;;;;7.07;3.03;;;12.70;99.90;;;;;;4856332;29;20031;-89
2023/02/13 15:00:03;;;;;;;7.50;3.92;;;13.40;99.90;;;;;;4849093;29;20033;-89
2023/02/13 15:02:36;;;;;;;6.90;3.67;;;;;;;;;;4857735;29;20041;-88
2023/02/13 15:05:10;;;;;;;7.70;3.47;;;13.40;99.90;;;;;;4865606;29;20049;-87
2023/02/13 15:07:52;;;;;;;6.32;3.13;;;13.70;99.90;;;;;;4864782;29;20014;-89
2023/02/13 15:11:34;;;;;;;7.63;3.25;;;14.10;99.90;;;;;;4860118;29;20038;-88
2023/02/13 15:13:56;;;;;;;4.45;2.40;;;14.00;99.90;;;;;;4847793;29;20041;-90
2023/02/13 15:16:21;;;;;;;6.60;3.10;;;13.20;99.90;;;;;;4857280;29;20042;-89
2023/02/13 15:18:51;;;;;;;6.65;3.30;;;13.90;99.90;;;;;;4856819;29;20033;-90
2023/02/13 15:21:23;;;;;;;7.63;3.25;;;13.80;99.90;;;;;;4857733;29;20069;-91
2023/02/13 15:24:22;;;;;;;;;;;14.30;99.90;;;;;;4854993;29;20041;-89
2023/02/13 15:27:06;;;;;;;6.30;2.67;;;13.20;99.90;;;;;;4853335;29;20015;-90
2023/02/13 15:29:34;;;;;;;6.22;3.08;;;12.40;99.90;;;;;;4853333;29;20030;-90
2023/02/13 15:32:00;;;;;;;8.43;3.03;;;;;;;;;;4849166;29;20026;-90
2023/02/13 15:34:34;;;;;;;6.13;3.03;;;10.30;99.90;;;;;;4854743;29;20045;-89
2023/02/13 15:37:01;;;;;;;6.18;2.85;;;9.60;99.90;;;;;;4858387;29;20033;-89
2023/02/13 15:39:30;;;;;;;7.38;2.80;;;8.60;99.90;;;;;;4856822;29;20464;-89
2023/02/13 15:42:01;;;;;;;6.97;3.03;;;8.80;99.90;;;;;;4852705;29;20045;-90
2023/02/13 15:44:41;;;;;;;8.43;3.13;;;8.00;99.90;;;;;;4850663;29;20163;-90
2023/02/13 15:47:25;;;;;;;8.27;2.65;;;7.80;99.90;;;;;;4855503;29;20037;-88
2023/02/13 15:49:51;;;;;;;6.90;2.70;;;7.60;99.90;;;;;;4849580;29;20124;-88
2023/02/13 15:52:33;;;;;;;13.05;2.92;;;8.10;99.90;;;;;;4851612;29;20610;-89
2023/02/13 15:54:59;;;;;;;6.45;2.55;;;7.30;99.90;;;;;;4847085;29;20078;-87
2023/02/13 15:57:31;;;;;;;6.85;2.72;;;6.40;99.90;;;;;;4849323;29;20034;-91
2023/02/13 16:00:00;;;;;;;7.60;3.20;;;6.70;99.90;;;;;;4850658;29;20463;-91
2023/02/13 16:02:40;;;;;;;5.95;2.38;;;6.80;99.90;;;;;;4848876;29;20026;-88
2023/02/13 16:05:09;;;;;;;7.53;2.80;;;6.30;99.90;;;;;;4849654;29;20453;-89
2023/02/13 16:07:56;;;;;;;6.70;2.70;;;6.40;99.90;;;;;;4848893;29;20569;-90
2023/02/13 16:10:35;;;;;;;7.45;2.63;;;7.50;99.90;;;;;;4852301;29;20026;-89
2023/02/13 16:13:15;;;;;;;8.98;2.70;;;6.50;99.90;;;;;;4853387;29;20086;-90
2023/02/13 16:16:00;;;;;;;6.45;2.78;;;6.30;99.90;;;;;;4862509;29;20037;-90
2023/02/13 16:18:26;;;;;;;6.93;2.27;;;6.50;99.90;;;;;;4864485;29;20023;-90
2023/02/13 16:20:54;;;;;;;4.83;2.10;;;7.40;99.90;;;;;;4856380;29;20033;-90
2023/02/13 16:23:23;;;;;;;6.97;2.50;;;6.00;99.90;;;;;;4857825;29;20018;-88
2023/02/13 16:25:52;;;;;;;6.03;2.27;;;5.60;99.90;;;;;;4854140;29;20227;-90
2023/02/13 16:28:17;;;;;;;7.23;2.70;;;5.60;99.90;;;;;;4858050;29;20018;-89
2023/02/13 16:30:57;;;;;;;8.23;2.53;;;5.80;99.90;;;;;;4854186;29;20061;-89
2023/02/13 16:33:28;;;;;;;7.73;2.83;;;5.50;99.90;;;;;;4871751;29;20043;-88
2023/02/13 16:36:14;;;;;;;6.47;2.40;;;6.70;99.90;;;;;;4860182;29;20041;-91
2023/02/13 16:39:27;;;;;;;8.03;2.63;;;5.30;99.90;;;;;;4852312;29;20042;-89
2023/02/13 16:42:02;;;;;;;5.97;2.20;;;5.10;99.90;;;;;;4854499;29;20037;-90
2023/02/13 16:44:32;;;;;;;6.37;2.03;;;5.10;99.90;;;;;;4859520;29;20058;-89
2023/02/13 16:46:58;;;;;;;6.60;2.10;;;5.90;99.90;;;;;;4852048;29;20113;-89
2023/02/13 16:49:26;;;;;;;7.03;2.37;;;7.70;99.90;;;;;;4852289;29;20514;-89
2023/02/13 16:52:11;;;;;;;8.87;2.87;;;6.20;99.90;;;;;;4854996;29;20098;-89
2023/02/13 16:55:15;;;;;;;7.60;2.87;;;4.70;99.90;;;;;;4856731;29;20079;-89
2023/02/13 16:57:44;;;;;;;8.10;2.40;;;;;;;;;;4820711;29;20034;-90
2023/02/13 17:00:26;;;;;;;6.70;2.30;;;;;;;;;;4820522;29;20170;-88
2023/02/13 17:03:14;;;;;;;;;;;;;;;;;;4855547;29;20045;-87
2023/02/13 17:05:45;;;;;;;10.97;2.80;;;4.50;99.90;;;;;;4853930;29;20385;-88
2023/02/13 17:08:19;;;;;;;6.83;2.33;;;4.50;99.90;;;;;;4862147;29;20098;-88
2023/02/13 17:11:02;;;;;;;8.80;2.60;;;;;;;;;;4853242;29;20026;-89
2023/02/13 17:13:28;;;;;;;;;;;4.20;99.90;;;;;;4854749;29;20023;-89
2023/02/13 17:15:58;;;;;;;9.50;3.27;;;4.40;99.90;;;;;;4852711;29;19920;-88
2023/02/13 17:18:27;;;;;;;9.53;2.93;;;4.30;99.90;;;;;;4849811;29;20033;-89
2023/02/13 17:20:53;;;;;;;8.60;2.23;;;4.20;99.90;;;;;;4848703;29;20029;-89
2023/02/13 17:23:26;;;;;;;7.33;2.30;;;3.80;99.90;;;;;;4849591;29;20038;-89
2023/02/13 17:25:52;;;;;;;9.73;2.88;;;3.50;99.90;;;;;;4850548;29;20060;-90
2023/02/13 17:28:27;;;;;;;7.63;2.67;;;3.70;99.90;;;;;;4853582;29;20033;-90
2023/02/13 17:30:56;;;;;;;8.87;2.27;;;;;;;;;;4851348;29;20052;-90
2023/02/13 17:33:25;;;;;;;9.10;3.50;;;5.40;99.90;;;;;;4851836;29;20212;-89
2023/02/13 17:35:52;;;;;;;8.33;3.03;;;3.70;99.90;;;;;;4851165;29;20038;-90
2023/02/13 17:38:18;;;;;;;9.97;3.50;;;4.20;99.90;;;;;;4841152;29;20526;-90
2023/02/13 17:40:47;;;;;;;10.50;3.53;;;4.70;99.90;;;;;;4854508;29;20049;-89
2023/02/13 17:43:16;;;;;;;12.83;3.40;;;3.10;99.90;;;;;;4844428;29;20030;-89
2023/02/13 17:45:42;;;;;;;8.27;2.40;;;4.80;99.90;;;;;;4849116;29;20030;-89
2023/02/13 17:48:08;;;;;;;11.37;3.50;;;3.10;99.90;;;;;;4846679;29;20090;-90
2023/02/13 17:50:35;;;;;;;9.13;2.90;;;3.10;99.90;;;;;;4848602;29;20030;-89
2023/02/13 17:53:05;;;;;;;10.77;2.80;;;2.90;99.90;;;;;;4850349;29;20480;-88
2023/02/13 17:55:32;;;;;;;7.93;2.57;;;2.50;99.90;;;;;;4848901;29;20040;-89
2023/02/13 17:58:01;;;;;;;8.03;2.80;;;2.80;99.90;;;;;;4856834;29;20017;-88
2023/02/13 18:00:32;;;;;;;6.93;1.93;;;2.70;99.90;;;;;;4852045;29;20034;-88
2023/02/13 18:03:00;;;;;;;9.40;2.73;;;3.90;99.90;;;;;;4855894;29;20030;-88
2023/02/13 18:05:26;;;;;;;8.13;2.67;;;2.60;99.90;;;;;;4866049;29;20017;-89
2023/02/13 18:07:52;;;;;;;10.03;3.00;;;3.80;99.90;;;;;;4858652;29;20071;-89
2023/02/13 18:10:25;;;;;;;8.67;3.20;;;3.80;99.90;;;;;;4853146;29;20063;-90